createdAt,value
2018-02-23T00:01:34.064Z,52.60
2018-02-23T00:04:00.356Z,42.00
2018-02-23T00:06:26.916Z,48.78
2018-02-23T00:08:53.207Z,41.83
2018-02-23T00:11:19.593Z,44.78
2018-02-23T00:13:45.813Z,44.05
2018-02-23T00:16:12.200Z,44.30
2018-02-23T00:18:38.527Z,47.10
2018-02-23T00:21:04.814Z,41.47
2018-02-23T00:23:31.154Z,44.42
2018-02-23T00:25:57.554Z,46.03
2018-02-23T00:28:23.892Z,45.67
2018-02-23T00:30:50.293Z,44.38
2018-02-23T00:33:16.667Z,50.88
2018-02-23T00:35:43.023Z,47.80
2018-02-23T00:38:09.255Z,44.90
2018-02-23T00:40:35.597Z,44.22
2018-02-23T00:43:01.917Z,35.45
2018-02-23T00:45:28.182Z,46.95
2018-02-23T00:47:54.466Z,42.70
2018-02-23T00:50:20.869Z,45.92
2018-02-23T00:52:47.308Z,45.67
2018-02-23T00:55:13.610Z,44.78
2018-02-23T00:57:39.969Z,45.25
2018-02-23T01:00:06.290Z,44.22
2018-02-23T01:02:32.497Z,41.65
2018-02-23T01:04:58.860Z,39.25
2018-02-23T01:07:25.149Z,49.50
2018-02-23T01:09:51.536Z,40.60
2018-02-23T01:12:17.966Z,41.90
2018-02-23T01:14:44.310Z,44.78
2018-02-23T01:17:10.697Z,41.92
2018-02-23T01:19:37.071Z,47.58
2018-02-23T01:22:03.267Z,44.03
2018-02-23T01:24:29.582Z,36.83
2018-02-23T01:26:55.827Z,42.28
2018-02-23T01:29:22.071Z,44.58
2018-02-23T01:31:48.433Z,46.35
2018-02-23T01:34:14.832Z,43.10
2018-02-23T01:36:41.155Z,42.88
2018-02-23T01:39:07.664Z,40.97
2018-02-23T01:41:34.083Z,41.47
2018-02-23T01:44:00.304Z,37.22
2018-02-23T01:46:26.731Z,47.33
2018-02-23T01:48:53.065Z,40.58
2018-02-23T01:51:19.541Z,45.88
2018-02-23T01:53:46.004Z,38.33
2018-02-23T01:56:12.356Z,43.15
2018-02-23T01:58:38.744Z,42.17
2018-02-23T02:01:05.233Z,42.00
2018-02-23T02:03:31.533Z,38.10
2018-02-23T02:05:57.804Z,40.58
2018-02-23T02:08:24.150Z,42.00
2018-02-23T02:10:50.453Z,43.95
2018-02-23T02:13:16.838Z,36.72
2018-02-23T02:15:43.154Z,39.03
2018-02-23T02:18:09.558Z,41.37
2018-02-23T02:20:35.811Z,35.10
2018-02-23T02:23:02.008Z,39.72
2018-02-23T02:25:28.195Z,44.10
2018-02-23T02:27:54.592Z,39.85
2018-02-23T02:30:20.956Z,48.17
2018-02-23T02:32:47.322Z,37.58
2018-02-23T02:35:13.729Z,40.55
2018-02-23T02:37:40.048Z,41.97
2018-02-23T02:40:06.431Z,41.97
2018-02-23T02:42:32.793Z,42.83
2018-02-23T02:44:59.107Z,37.05
2018-02-23T02:47:25.421Z,42.00
2018-02-23T02:49:51.719Z,41.37
2018-02-23T02:52:18.019Z,40.15
2018-02-23T02:54:44.348Z,42.15
2018-02-23T02:57:10.690Z,39.70
2018-02-23T02:59:37.118Z,39.08
2018-02-23T03:02:03.523Z,40.95
2018-02-23T03:04:29.886Z,39.85
2018-02-23T03:06:56.182Z,40.17
2018-02-23T03:09:22.523Z,37.85
2018-02-23T03:11:48.907Z,38.58
2018-02-23T03:14:15.256Z,39.25
2018-02-23T03:16:41.807Z,37.30
2018-02-23T03:19:08.115Z,41.53
2018-02-23T03:21:34.661Z,43.33
2018-02-23T03:24:00.968Z,41.80
2018-02-23T03:26:27.489Z,40.72
2018-02-23T03:28:53.819Z,43.90
2018-02-23T03:31:20.276Z,42.35
2018-02-23T03:33:46.711Z,41.03
2018-02-23T03:36:13.026Z,42.28
2018-02-23T03:38:39.395Z,40.17
2018-02-23T03:41:05.856Z,43.92
2018-02-23T03:43:32.156Z,41.08
2018-02-23T03:45:58.558Z,43.08
2018-02-23T03:48:24.844Z,42.33
2018-02-23T03:50:51.302Z,38.15
2018-02-23T03:53:17.745Z,40.65
2018-02-23T03:55:44.044Z,37.22
2018-02-23T03:58:10.356Z,39.95
2018-02-23T04:00:36.706Z,39.38
2018-02-23T04:03:02.914Z,43.53
2018-02-23T04:05:29.231Z,44.38
2018-02-23T04:07:55.730Z,39.28
2018-02-23T04:10:22.046Z,42.35
2018-02-23T04:12:48.444Z,43.70
2018-02-23T04:15:14.752Z,46.37
2018-02-23T04:17:41.203Z,44.08
2018-02-23T04:20:07.583Z,44.78
2018-02-23T04:22:33.947Z,44.72
2018-02-23T04:25:00.246Z,47.15
2018-02-23T04:27:26.527Z,45.88
2018-02-23T04:29:52.841Z,45.88
2018-02-23T04:32:19.256Z,48.40
2018-02-23T04:34:45.715Z,49.05
2018-02-23T04:37:12.164Z,47.33
2018-02-23T04:39:38.428Z,46.90
2018-02-23T04:42:04.750Z,51.15
2018-02-23T04:44:31.084Z,47.03
2018-02-23T04:46:57.420Z,45.30
2018-02-23T04:49:23.702Z,45.63
2018-02-23T04:51:50.094Z,52.60
2018-02-23T04:54:16.545Z,51.03
2018-02-23T04:56:42.861Z,51.20
2018-02-23T04:59:09.235Z,51.00
2018-02-23T05:01:35.698Z,50.42
2018-02-23T05:04:01.993Z,50.63
2018-02-23T05:06:28.303Z,53.70
2018-02-23T05:08:54.574Z,53.58
2018-02-23T05:11:21.000Z,47.10
2018-02-23T05:13:47.531Z,44.63
2018-02-23T05:16:13.922Z,54.35
2018-02-23T05:18:40.197Z,47.90
2018-02-23T05:21:06.552Z,53.75
2018-02-23T05:23:32.829Z,59.03
2018-02-23T05:25:59.183Z,52.00
2018-02-23T05:28:25.419Z,51.03
2018-02-23T05:30:51.876Z,51.35
2018-02-23T05:33:18.597Z,48.15
2018-02-23T05:35:44.936Z,53.83
2018-02-23T05:38:12.413Z,49.25
2018-02-23T05:40:38.751Z,47.75
2018-02-23T05:43:05.144Z,48.50
2018-02-23T05:45:31.522Z,53.08
2018-02-23T05:47:57.801Z,50.50
2018-02-23T05:50:24.101Z,49.88
2018-02-23T05:52:50.377Z,52.08
2018-02-23T05:55:16.766Z,47.85
2018-02-23T05:57:43.029Z,50.08
2018-02-23T06:00:09.272Z,46.17
2018-02-23T06:02:35.658Z,46.85
2018-02-23T06:05:01.929Z,45.30
2018-02-23T06:07:28.233Z,47.20
2018-02-23T06:09:54.482Z,46.00
2018-02-23T06:12:20.903Z,45.95
2018-02-23T06:14:47.563Z,49.45
2018-02-23T06:17:19.935Z,45.25
2018-02-23T06:19:52.378Z,47.17
2018-02-23T06:22:18.612Z,46.47
2018-02-23T06:24:44.934Z,48.33
2018-02-23T06:27:11.224Z,45.75
2018-02-23T06:29:37.553Z,40.60
2018-02-23T06:32:03.939Z,47.33
2018-02-23T06:34:30.287Z,44.03
2018-02-23T06:36:56.610Z,45.75
2018-02-23T06:39:22.936Z,43.03
2018-02-23T06:41:49.465Z,44.65
2018-02-23T06:44:15.920Z,52.05
2018-02-23T06:46:42.436Z,45.65
2018-02-23T06:49:08.790Z,46.65
2018-02-23T06:51:35.372Z,45.25
2018-02-23T06:54:01.647Z,41.63
2018-02-23T06:56:28.079Z,46.42
2018-02-23T06:58:54.397Z,48.50
2018-02-23T07:01:21.106Z,44.25
2018-02-23T07:03:47.583Z,38.72
2018-02-23T07:06:14.195Z,46.47
2018-02-23T07:08:41.558Z,46.33
2018-02-23T07:11:07.892Z,42.95
2018-02-23T07:13:34.572Z,38.50
2018-02-23T07:16:00.932Z,44.70
2018-02-23T07:18:27.211Z,42.97
2018-02-23T07:20:53.503Z,47.08
2018-02-23T07:23:19.860Z,44.35
2018-02-23T07:25:46.211Z,46.03
2018-02-23T07:28:12.601Z,48.50
2018-02-23T07:30:38.897Z,46.90
2018-02-23T07:33:05.342Z,44.33
2018-02-23T07:35:31.641Z,46.35
2018-02-23T07:37:57.969Z,43.35
2018-02-23T07:40:24.332Z,48.78
2018-02-23T07:42:50.615Z,43.65
2018-02-23T07:45:16.919Z,42.22
2018-02-23T07:47:43.219Z,38.00
2018-02-23T07:50:09.577Z,46.50
2018-02-23T07:52:35.918Z,44.50
2018-02-23T07:55:02.338Z,43.42
2018-02-23T07:57:28.579Z,43.92
2018-02-23T07:59:55.076Z,45.55
2018-02-23T08:02:21.288Z,41.28
2018-02-23T08:04:47.826Z,44.97
2018-02-23T08:07:14.213Z,47.60
2018-02-23T08:09:40.507Z,43.45
2018-02-23T08:12:06.778Z,44.42
2018-02-23T08:14:33.189Z,43.25
2018-02-23T08:16:59.478Z,44.20
2018-02-23T08:19:25.802Z,41.85
2018-02-23T08:21:52.003Z,44.53
2018-02-23T08:24:18.305Z,42.30
2018-02-23T08:26:44.841Z,43.58
2018-02-23T08:29:11.092Z,44.88
2018-02-23T08:31:37.485Z,42.58
2018-02-23T08:34:03.832Z,43.53
2018-02-23T08:36:30.361Z,42.47
2018-02-23T08:38:56.643Z,44.60
2018-02-23T08:41:23.140Z,36.30
2018-02-23T08:43:49.518Z,43.92
2018-02-23T08:46:15.950Z,41.55
2018-02-23T08:48:42.265Z,41.53
2018-02-23T08:51:08.588Z,42.97
2018-02-23T08:53:34.992Z,43.72
2018-02-23T08:56:01.316Z,41.17
2018-02-23T08:58:27.596Z,38.70
2018-02-23T09:00:53.963Z,43.28
2018-02-23T09:03:20.369Z,45.05
2018-02-23T09:05:46.870Z,42.90
2018-02-23T09:08:13.163Z,45.72
2018-02-23T09:10:39.442Z,42.80
2018-02-23T09:13:05.673Z,43.72
2018-02-23T09:15:31.978Z,46.05
2018-02-23T09:17:58.288Z,41.90
2018-02-23T09:20:24.572Z,49.17
2018-02-23T09:22:50.860Z,42.72
2018-02-23T09:25:17.271Z,44.47
2018-02-23T09:27:43.592Z,46.88
2018-02-23T09:30:09.944Z,44.33
2018-02-23T09:32:37.287Z,47.03
2018-02-23T09:35:03.554Z,44.80
2018-02-23T09:37:29.812Z,42.00
2018-02-23T09:39:56.061Z,40.78
2018-02-23T09:42:22.285Z,42.03
2018-02-23T09:44:48.534Z,40.00
2018-02-23T09:47:14.985Z,42.50
2018-02-23T09:49:41.302Z,39.53
2018-02-23T09:52:07.725Z,43.15
2018-02-23T09:54:34.046Z,39.97
2018-02-23T09:57:00.559Z,42.92
2018-02-23T09:59:27.063Z,44.97
2018-02-23T10:01:53.563Z,42.30
2018-02-23T10:04:19.920Z,41.73
2018-02-23T10:06:46.434Z,38.97
2018-02-23T10:09:12.731Z,43.77
2018-02-23T10:11:39.025Z,48.43
2018-02-23T10:14:05.303Z,45.20
2018-02-23T10:16:31.878Z,43.37
2018-02-23T10:18:58.281Z,42.07
2018-02-23T10:21:24.779Z,44.33
2018-02-23T10:23:51.206Z,42.17
2018-02-23T10:26:17.680Z,40.77
2018-02-23T10:28:43.964Z,43.67
2018-02-23T10:31:10.348Z,49.80
2018-02-23T10:33:36.692Z,44.67
2018-02-23T10:36:03.015Z,41.43
2018-02-23T10:38:29.302Z,44.90
2018-02-23T10:40:55.564Z,41.90
2018-02-23T10:43:21.821Z,42.27
2018-02-23T10:45:48.127Z,44.23
2018-02-23T10:48:14.698Z,42.10
2018-02-23T10:50:41.165Z,40.83
2018-02-23T10:53:07.552Z,45.13
2018-02-23T10:55:33.921Z,44.87
2018-02-23T10:58:00.344Z,42.77
2018-02-23T11:00:26.692Z,41.33
2018-02-23T11:02:53.019Z,42.30
2018-02-23T11:05:19.393Z,43.93
2018-02-23T11:07:45.652Z,39.43
2018-02-23T11:10:11.916Z,42.67
2018-02-23T11:12:38.147Z,46.23
2018-02-23T11:15:04.392Z,39.83
2018-02-23T11:17:30.815Z,44.77
2018-02-23T11:19:57.166Z,42.17
2018-02-23T11:22:23.443Z,37.50
2018-02-23T11:24:49.812Z,41.93
2018-02-23T11:27:16.161Z,39.87
2018-02-23T11:29:42.428Z,43.80
2018-02-23T11:32:08.686Z,45.00
2018-02-23T11:34:35.057Z,43.17
2018-02-23T11:37:01.478Z,44.17
2018-02-23T11:39:27.854Z,42.23
2018-02-23T11:41:54.292Z,43.97
2018-02-23T11:44:20.482Z,46.67
2018-02-23T11:46:46.879Z,47.37
2018-02-23T11:49:13.093Z,46.47
2018-02-23T11:51:39.360Z,48.77
2018-02-23T11:54:05.633Z,49.67
2018-02-23T11:56:31.834Z,41.33
2018-02-23T11:58:58.088Z,50.10
2018-02-23T12:01:24.405Z,44.53
2018-02-23T12:03:51.196Z,47.27
2018-02-23T12:06:17.432Z,52.80
2018-02-23T12:08:43.698Z,52.43
2018-02-23T12:11:10.316Z,51.20
2018-02-23T12:13:36.573Z,49.97
2018-02-23T12:16:02.947Z,50.20
2018-02-23T12:18:29.199Z,52.17
2018-02-23T12:20:55.555Z,53.67
2018-02-23T12:23:21.867Z,53.00
2018-02-23T12:25:48.055Z,51.73
2018-02-23T12:28:14.531Z,56.47
2018-02-23T12:30:40.801Z,57.10
2018-02-23T12:33:07.028Z,55.70
2018-02-23T12:35:33.292Z,51.07
2018-02-23T12:37:59.627Z,57.87
2018-02-23T12:40:25.839Z,60.50
2018-02-23T12:42:52.136Z,53.07
2018-02-23T12:45:18.407Z,59.17
2018-02-23T12:47:44.834Z,53.93
2018-02-23T12:50:11.225Z,55.83
2018-02-23T12:52:37.494Z,57.43
2018-02-23T12:55:03.815Z,54.00
2018-02-23T12:57:30.136Z,53.53
2018-02-23T12:59:56.346Z,54.70
2018-02-23T13:02:22.733Z,50.90
2018-02-23T13:04:49.138Z,51.87
2018-02-23T13:07:15.527Z,60.27
2018-02-23T13:09:41.899Z,57.07
2018-02-23T13:12:08.130Z,54.30
2018-02-23T13:14:40.388Z,61.03
2018-02-23T13:17:06.731Z,60.23
2018-02-23T13:19:33.151Z,57.57
2018-02-23T13:21:59.362Z,63.00
2018-02-23T13:24:25.725Z,58.57
2018-02-23T13:26:52.154Z,53.07
2018-02-23T13:29:18.470Z,52.67
2018-02-23T13:31:44.745Z,53.77
2018-02-23T13:34:11.077Z,60.37
2018-02-23T13:36:37.362Z,59.20
2018-02-23T13:39:03.976Z,58.33
2018-02-23T13:41:36.341Z,56.17
2018-02-23T13:44:02.628Z,53.20
2018-02-23T13:46:28.908Z,56.27
2018-02-23T13:48:55.133Z,62.97
2018-02-23T13:51:21.424Z,64.33
2018-02-23T13:53:47.772Z,61.83
2018-02-23T13:56:14.082Z,57.00
2018-02-23T13:58:40.383Z,60.20
2018-02-23T14:01:06.759Z,57.67
2018-02-23T14:03:33.118Z,57.87
2018-02-23T14:06:03.358Z,58.00
2018-02-23T14:08:29.595Z,54.47
2018-02-23T14:10:55.810Z,56.47
2018-02-23T14:13:22.132Z,60.23
2018-02-23T14:15:48.451Z,55.40
2018-02-23T14:18:14.732Z,56.27
2018-02-23T14:20:40.999Z,51.73
2018-02-23T14:23:07.310Z,55.47
2018-02-23T14:25:33.567Z,61.00
2018-02-23T14:27:59.871Z,56.33
2018-02-23T14:30:26.184Z,64.47
2018-02-23T14:32:52.394Z,67.77
2018-02-23T14:35:18.702Z,64.87
2018-02-23T14:37:45.053Z,63.80
2018-02-23T14:40:11.404Z,65.47
2018-02-23T14:42:37.765Z,68.60
2018-02-23T14:45:04.127Z,65.77
2018-02-23T14:47:30.375Z,65.93
2018-02-23T14:50:03.127Z,60.33
2018-02-23T14:52:29.553Z,62.07
2018-02-23T14:54:55.894Z,63.10
2018-02-23T14:57:22.087Z,64.80
2018-02-23T14:59:48.359Z,62.77
2018-02-23T15:02:14.716Z,64.30
2018-02-23T15:04:41.161Z,66.30
2018-02-23T15:07:07.585Z,62.00
2018-02-23T15:09:34.003Z,66.30
2018-02-23T15:12:00.341Z,62.07
2018-02-23T15:14:26.587Z,59.33
2018-02-23T15:16:52.780Z,63.13
2018-02-23T15:19:19.269Z,68.73
2018-02-23T15:21:45.529Z,61.13
2018-02-23T15:24:11.931Z,68.25
2018-02-23T15:26:38.249Z,64.75
2018-02-23T15:29:04.537Z,68.97
2018-02-23T15:31:36.684Z,62.92
2018-02-23T15:34:03.183Z,60.35
2018-02-23T15:36:29.526Z,62.07
2018-02-23T15:38:55.793Z,62.70
2018-02-23T15:41:33.899Z,64.10
2018-02-23T15:44:00.990Z,64.93
2018-02-23T15:46:27.372Z,61.88
2018-02-23T15:48:59.658Z,65.80
2018-02-23T15:51:40.914Z,64.72
2018-02-23T15:54:07.404Z,68.00
2018-02-23T15:56:33.765Z,65.15
2018-02-23T15:59:00.083Z,69.57
2018-02-23T16:01:26.399Z,64.87
2018-02-23T16:03:52.763Z,69.57
2018-02-23T16:06:19.299Z,64.68
2018-02-23T16:08:45.816Z,67.43
2018-02-23T16:11:12.065Z,68.62
2018-02-23T16:13:38.408Z,67.80
2018-02-23T16:16:04.855Z,60.17
2018-02-23T16:18:31.155Z,62.75
2018-02-23T16:20:57.393Z,66.40
2018-02-23T16:23:23.673Z,62.60
2018-02-23T16:25:50.000Z,59.30
2018-02-23T16:28:16.412Z,58.67
2018-02-23T16:30:42.721Z,64.15
2018-02-23T16:33:08.924Z,69.00
2018-02-23T16:35:35.326Z,72.22
2018-02-23T16:38:01.573Z,63.87
2018-02-23T16:40:27.997Z,64.35
2018-02-23T16:42:54.216Z,68.68
2018-02-23T16:45:20.634Z,66.62
2018-02-23T16:47:46.949Z,74.47
2018-02-23T16:50:13.353Z,65.78
2018-02-23T16:52:39.827Z,63.15
2018-02-23T16:55:06.074Z,65.60
2018-02-23T16:57:32.293Z,66.47
2018-02-23T16:59:58.513Z,64.45
2018-02-23T17:02:24.761Z,63.47
2018-02-23T17:04:51.213Z,63.10
2018-02-23T17:07:17.567Z,59.75
2018-02-23T17:09:43.838Z,66.72
2018-02-23T17:12:10.532Z,64.07
2018-02-23T17:14:36.881Z,63.78
2018-02-23T17:17:03.364Z,60.70
2018-02-23T17:19:30.589Z,59.17
2018-02-23T17:21:56.918Z,59.28
2018-02-23T17:24:23.125Z,62.22
2018-02-23T17:26:49.419Z,59.45
2018-02-23T17:29:15.839Z,59.88
2018-02-23T17:31:42.070Z,68.37
2018-02-23T17:34:08.416Z,64.62
2018-02-23T17:36:34.748Z,65.32
2018-02-23T17:39:01.040Z,58.90
2018-02-23T17:41:27.403Z,58.50
2018-02-23T17:43:53.659Z,59.00
2018-02-23T17:46:20.020Z,60.88
2018-02-23T17:48:46.436Z,65.95
2018-02-23T17:51:12.723Z,62.88
2018-02-23T17:53:39.012Z,63.70
2018-02-23T17:56:05.146Z,58.55
2018-02-23T17:58:31.368Z,64.72
2018-02-23T18:00:57.646Z,56.45
2018-02-23T18:03:23.867Z,62.55
2018-02-23T18:05:50.249Z,59.70
2018-02-23T18:08:16.658Z,61.90
2018-02-23T18:10:42.850Z,65.65
2018-02-23T18:13:09.207Z,60.88
2018-02-23T18:15:35.535Z,60.83
2018-02-23T18:18:01.797Z,62.88
2018-02-23T18:20:28.047Z,60.30
2018-02-23T18:22:54.261Z,69.05
2018-02-23T18:25:20.521Z,62.47
2018-02-23T18:27:46.977Z,70.57
2018-02-23T18:30:13.271Z,62.38
2018-02-23T18:32:39.485Z,62.35
2018-02-23T18:35:05.965Z,65.18
2018-02-23T18:37:32.367Z,64.87
2018-02-23T18:39:58.671Z,61.88
2018-02-23T18:42:24.984Z,60.15
2018-02-23T18:44:51.382Z,67.45
2018-02-23T18:47:17.731Z,59.17
2018-02-23T18:49:44.049Z,62.85
2018-02-23T18:52:10.373Z,57.78
2018-02-23T18:54:36.535Z,116.37
2018-02-23T18:57:02.763Z,79.40
2018-02-23T18:59:29.184Z,65.70
2018-02-23T19:01:55.595Z,105.97
2018-02-23T19:04:21.972Z,85.38
2018-02-23T19:06:48.290Z,73.10
2018-02-23T19:09:14.839Z,129.68
2018-02-23T19:11:41.214Z,108.28
2018-02-23T19:14:07.678Z,104.87
2018-02-23T19:16:34.053Z,119.72
2018-02-23T19:19:00.348Z,134.45
2018-02-23T19:21:26.698Z,99.05
2018-02-23T19:23:53.008Z,84.60
2018-02-23T19:26:19.438Z,59.22
2018-02-23T19:28:45.763Z,57.00
2018-02-23T19:31:12.107Z,58.17
2018-02-23T19:33:38.410Z,59.25
2018-02-23T19:36:04.869Z,55.75
2018-02-23T19:38:31.258Z,59.95
2018-02-23T19:40:57.881Z,64.78
2018-02-23T19:43:24.209Z,58.53
2018-02-23T19:45:50.639Z,54.72
2018-02-23T19:48:17.029Z,61.10
2018-02-23T19:50:43.528Z,54.50
2018-02-23T19:53:09.842Z,57.00
2018-02-23T19:55:36.208Z,57.40
2018-02-23T19:58:02.493Z,54.17
2018-02-23T20:00:28.750Z,49.35
2018-02-23T20:02:55.190Z,54.17
2018-02-23T20:05:21.689Z,59.17
2018-02-23T20:07:48.019Z,58.33
2018-02-23T20:10:14.290Z,49.67
2018-02-23T20:12:40.699Z,51.97
2018-02-23T20:15:07.106Z,54.17
2018-02-23T20:17:33.468Z,53.00
2018-02-23T20:19:59.780Z,55.40
2018-02-23T20:22:26.048Z,50.53
2018-02-23T20:24:52.418Z,50.58
2018-02-23T20:27:18.832Z,50.58
2018-02-23T20:29:45.403Z,52.90
2018-02-23T20:32:11.735Z,50.12
2018-02-23T20:34:37.971Z,50.78
2018-02-23T20:37:04.431Z,47.75
2018-02-23T20:39:30.790Z,43.60
2018-02-23T20:41:57.120Z,43.95
2018-02-23T20:44:23.577Z,47.47
2018-02-23T20:46:49.874Z,49.95
2018-02-23T20:49:16.323Z,47.05
2018-02-23T20:51:42.595Z,46.85
2018-02-23T20:54:08.999Z,57.62
2018-02-23T20:56:35.378Z,49.88
2018-02-23T20:59:01.860Z,81.18
2018-02-23T21:01:28.116Z,52.17
2018-02-23T21:03:54.472Z,45.95
2018-02-23T21:06:20.699Z,50.05
2018-02-23T21:08:47.306Z,52.47
2018-02-23T21:11:13.876Z,42.95
2018-02-23T21:13:40.283Z,48.53
2018-02-23T21:16:06.652Z,52.75
2018-02-23T21:18:32.981Z,52.72
2018-02-23T21:20:59.383Z,53.55
2018-02-23T21:23:25.988Z,55.50
2018-02-23T21:25:52.414Z,49.17
2018-02-23T21:28:18.687Z,43.17
2018-02-23T21:30:45.102Z,50.33
2018-02-23T21:33:11.519Z,52.58
2018-02-23T21:35:37.775Z,47.65
2018-02-23T21:38:04.257Z,44.50
2018-02-23T21:40:30.677Z,48.20
2018-02-23T21:42:57.103Z,66.70
2018-02-23T21:45:23.379Z,108.93
2018-02-23T21:47:49.739Z,48.70
2018-02-23T21:50:16.043Z,43.78
2018-02-23T21:52:42.288Z,48.40
2018-02-23T21:55:08.835Z,39.10
2018-02-23T21:57:35.255Z,35.92
2018-02-23T22:00:01.564Z,43.47
2018-02-23T22:02:27.891Z,38.65
2018-02-23T22:04:54.152Z,43.72
2018-02-23T22:07:20.414Z,41.20
2018-02-23T22:09:46.729Z,44.75
2018-02-23T22:12:12.957Z,38.35
2018-02-23T22:14:39.411Z,42.78
2018-02-23T22:17:05.741Z,42.88
2018-02-23T22:19:32.164Z,38.30
2018-02-23T22:21:58.500Z,37.50
2018-02-23T22:24:24.879Z,32.25
2018-02-23T22:26:51.087Z,37.72
2018-02-23T22:29:17.548Z,46.58
2018-02-23T22:31:43.935Z,37.40
2018-02-23T22:34:10.238Z,37.60
2018-02-23T22:36:36.504Z,30.33
2018-02-23T22:39:02.977Z,31.90
2018-02-23T22:41:29.316Z,28.15
2018-02-23T22:43:55.583Z,22.83
2018-02-23T22:46:21.999Z,26.10
2018-02-23T22:48:48.294Z,27.17
2018-02-23T22:51:14.684Z,24.12
2018-02-23T22:53:41.041Z,23.02
2018-02-23T22:56:07.250Z,26.23
2018-02-23T22:58:33.633Z,29.50
2018-02-23T23:00:59.920Z,32.08
2018-02-23T23:03:26.219Z,30.02
2018-02-23T23:05:52.496Z,28.05
2018-02-23T23:08:18.789Z,28.48
2018-02-23T23:10:45.109Z,33.00
2018-02-23T23:13:11.385Z,32.65
2018-02-23T23:15:37.739Z,28.60
2018-02-23T23:18:04.174Z,33.10
2018-02-23T23:20:30.458Z,25.70
2018-02-23T23:22:56.792Z,30.30
2018-02-23T23:25:23.105Z,30.83
2018-02-23T23:27:49.410Z,29.98
2018-02-23T23:30:15.762Z,27.17
2018-02-23T23:32:42.042Z,25.58
2018-02-23T23:35:08.391Z,27.25
2018-02-23T23:37:34.821Z,31.85
2018-02-23T23:40:01.198Z,27.87
2018-02-23T23:42:27.500Z,30.70
2018-02-23T23:44:53.735Z,27.40
2018-02-23T23:47:20.036Z,27.13
2018-02-23T23:49:46.504Z,35.58
2018-02-23T23:52:12.745Z,29.00
2018-02-23T23:54:39.209Z,33.40
2018-02-23T23:57:05.469Z,34.58
2018-02-23T23:59:31.778Z,25.55
